sensor_id;sensor_type;location;lat;lon;timestamp;temperature;humidity
4487;DHT22;2256;48.740;9.106;2023-02-15T00:01:06;0.90;99.90
4487;DHT22;2256;48.740;9.106;2023-02-15T00:03:33;0.90;99.90
4487;DHT22;2256;48.740;9.106;2023-02-15T00:06:00;0.90;99.90
4487;DHT22;2256;48.740;9.106;2023-02-15T00:08:29;0.80;99.90
4487;DHT22;2256;48.740;9.106;2023-02-15T00:11:04;0.80;99.90
4487;DHT22;2256;48.740;9.106;2023-02-15T00:13:31;0.70;99.90
4487;DHT22;2256;48.740;9.106;2023-02-15T00:16:01;0.60;99.90
4487;DHT22;2256;48.740;9.106;2023-02-15T00:18:28;0.60;99.90
4487;DHT22;2256;48.740;9.106;2023-02-15T00:20:55;0.60;99.90
4487;DHT22;2256;48.740;9.106;2023-02-15T00:23:22;0.60;99.90
4487;DHT22;2256;48.740;9.106;2023-02-15T00:25:50;0.60;99.90
4487;DHT22;2256;48.740;9.106;2023-02-15T00:28:17;0.60;99.90
4487;DHT22;2256;48.740;9.106;2023-02-15T00:30:44;0.70;99.90
4487;DHT22;2256;48.740;9.106;2023-02-15T00:33:10;0.70;99.90
4487;DHT22;2256;48.740;9.106;2023-02-15T00:35:37;0.80;99.90
4487;DHT22;2256;48.740;9.106;2023-02-15T00:38:04;0.80;99.90
4487;DHT22;2256;48.740;9.106;2023-02-15T00:40:31;0.70;99.90
4487;DHT22;2256;48.740;9.106;2023-02-15T00:42:59;0.60;99.90
4487;DHT22;2256;48.740;9.106;2023-02-15T00:45:26;0.70;99.90
4487;DHT22;2256;48.740;9.106;2023-02-15T00:47:52;0.70;99.90
4487;DHT22;2256;48.740;9.106;2023-02-15T00:50:19;0.60;99.90
4487;DHT22;2256;48.740;9.106;2023-02-15T00:52:47;0.60;99.90
4487;DHT22;2256;48.740;9.106;2023-02-15T00:55:14;0.60;99.90
4487;DHT22;2256;48.740;9.106;2023-02-15T00:57:40;0.60;99.90
4487;DHT22;2256;48.740;9.106;2023-02-15T01:00:10;0.60;99.90
4487;DHT22;2256;48.740;9.106;2023-02-15T01:02:44;0.60;99.90
4487;DHT22;2256;48.740;9.106;2023-02-15T01:05:10;0.60;99.90
4487;DHT22;2256;48.740;9.106;2023-02-15T01:07:38;0.50;99.90
4487;DHT22;2256;48.740;9.106;2023-02-15T01:10:06;0.60;99.90
4487;DHT22;2256;48.740;9.106;2023-02-15T01:12:33;0.60;99.90
4487;DHT22;2256;48.740;9.106;2023-02-15T01:15:00;0.60;99.90
4487;DHT22;2256;48.740;9.106;2023-02-15T01:17:28;0.40;99.90
4487;DHT22;2256;48.740;9.106;2023-02-15T01:19:55;0.40;99.90
4487;DHT22;2256;48.740;9.106;2023-02-15T01:22:22;0.40;99.90
4487;DHT22;2256;48.740;9.106;2023-02-15T01:24:49;0.40;99.90
4487;DHT22;2256;48.740;9.106;2023-02-15T01:27:17;0.40;99.90
4487;DHT22;2256;48.740;9.106;2023-02-15T01:29:44;0.40;99.90
4487;DHT22;2256;48.740;9.106;2023-02-15T01:32:10;0.50;99.90
4487;DHT22;2256;48.740;9.106;2023-02-15T01:34:38;0.50;99.90
4487;DHT22;2256;48.740;9.106;2023-02-15T01:37:05;0.40;99.90
4487;DHT22;2256;48.740;9.106;2023-02-15T01:39:33;0.40;99.90
4487;DHT22;2256;48.740;9.106;2023-02-15T01:42:01;0.20;99.90
4487;DHT22;2256;48.740;9.106;2023-02-15T01:44:49;0.20;99.90
4487;DHT22;2256;48.740;9.106;2023-02-15T01:47:18;0.20;99.90
4487;DHT22;2256;48.740;9.106;2023-02-15T01:49:51;0.20;99.90
4487;DHT22;2256;48.740;9.106;2023-02-15T01:52:23;0.30;99.90
4487;DHT22;2256;48.740;9.106;2023-02-15T01:54:50;0.30;99.90
4487;DHT22;2256;48.740;9.106;2023-02-15T01:57:20;0.30;99.90
4487;DHT22;2256;48.740;9.106;2023-02-15T01:59:53;0.30;99.90
4487;DHT22;2256;48.740;9.106;2023-02-15T02:02:21;0.30;99.90
4487;DHT22;2256;48.740;9.106;2023-02-15T02:04:52;0.20;99.90
4487;DHT22;2256;48.740;9.106;2023-02-15T02:07:25;0.20;99.90
4487;DHT22;2256;48.740;9.106;2023-02-15T02:09:52;0.20;99.90
4487;DHT22;2256;48.740;9.106;2023-02-15T02:12:20;0.20;99.90
4487;DHT22;2256;48.740;9.106;2023-02-15T02:14:48;0.20;99.90
4487;DHT22;2256;48.740;9.106;2023-02-15T02:17:19;0.20;99.90
4487;DHT22;2256;48.740;9.106;2023-02-15T02:23:20;0.20;99.90
4487;DHT22;2256;48.740;9.106;2023-02-15T02:29:26;-0.10;99.90
4487;DHT22;2256;48.740;9.106;2023-02-15T02:35:08;-0.10;99.90
4487;DHT22;2256;48.740;9.106;2023-02-15T02:37:45;0.10;99.90
4487;DHT22;2256;48.740;9.106;2023-02-15T02:40:20;0.00;99.90
4487;DHT22;2256;48.740;9.106;2023-02-15T02:42:58;0.10;99.90
4487;DHT22;2256;48.740;9.106;2023-02-15T02:45:30;0.10;99.90
4487;DHT22;2256;48.740;9.106;2023-02-15T02:48:03;0.20;99.90
4487;DHT22;2256;48.740;9.106;2023-02-15T02:50:32;0.10;99.90
4487;DHT22;2256;48.740;9.106;2023-02-15T02:52:59;0.00;99.90
4487;DHT22;2256;48.740;9.106;2023-02-15T02:55:30;0.10;99.90
4487;DHT22;2256;48.740;9.106;2023-02-15T02:58:02;0.10;99.90
4487;DHT22;2256;48.740;9.106;2023-02-15T03:00:32;0.00;99.90
4487;DHT22;2256;48.740;9.106;2023-02-15T03:03:03;-0.10;99.90
4487;DHT22;2256;48.740;9.106;2023-02-15T03:05:39;-0.20;99.90
4487;DHT22;2256;48.740;9.106;2023-02-15T03:08:09;-0.30;99.90
4487;DHT22;2256;48.740;9.106;2023-02-15T03:10:37;-0.30;99.90
4487;DHT22;2256;48.740;9.106;2023-02-15T03:13:07;-0.40;99.90
4487;DHT22;2256;48.740;9.106;2023-02-15T03:15:38;-0.40;99.90
4487;DHT22;2256;48.740;9.106;2023-02-15T03:18:28;-0.40;99.90
4487;DHT22;2256;48.740;9.106;2023-02-15T03:21:00;-0.30;99.90
4487;DHT22;2256;48.740;9.106;2023-02-15T03:23:28;-0.40;99.90
4487;DHT22;2256;48.740;9.106;2023-02-15T03:25:59;-0.50;99.90
4487;DHT22;2256;48.740;9.106;2023-02-15T03:28:30;-0.60;99.90
4487;DHT22;2256;48.740;9.106;2023-02-15T03:31:01;-0.60;99.90
4487;DHT22;2256;48.740;9.106;2023-02-15T03:33:29;-0.50;99.90
4487;DHT22;2256;48.740;9.106;2023-02-15T03:36:04;-0.60;99.90
4487;DHT22;2256;48.740;9.106;2023-02-15T03:38:42;-0.50;99.90
4487;DHT22;2256;48.740;9.106;2023-02-15T03:41:12;-0.60;99.90
4487;DHT22;2256;48.740;9.106;2023-02-15T03:43:47;-0.60;99.90
4487;DHT22;2256;48.740;9.106;2023-02-15T03:46:20;-0.60;99.90
4487;DHT22;2256;48.740;9.106;2023-02-15T03:48:52;-0.60;99.90
4487;DHT22;2256;48.740;9.106;2023-02-15T03:51:23;-0.60;99.90
4487;DHT22;2256;48.740;9.106;2023-02-15T03:54:08;-0.70;99.90
4487;DHT22;2256;48.740;9.106;2023-02-15T03:56:37;-0.70;99.90
4487;DHT22;2256;48.740;9.106;2023-02-15T03:59:05;-0.60;99.90
4487;DHT22;2256;48.740;9.106;2023-02-15T04:01:58;-0.60;99.90
4487;DHT22;2256;48.740;9.106;2023-02-15T04:04:37;-0.50;99.90
4487;DHT22;2256;48.740;9.106;2023-02-15T04:07:08;-0.60;99.90
4487;DHT22;2256;48.740;9.106;2023-02-15T04:09:35;-0.50;99.90
4487;DHT22;2256;48.740;9.106;2023-02-15T04:12:20;-0.40;99.90
4487;DHT22;2256;48.740;9.106;2023-02-15T04:14:47;-0.40;99.90
4487;DHT22;2256;48.740;9.106;2023-02-15T04:17:31;-0.60;99.90
4487;DHT22;2256;48.740;9.106;2023-02-15T04:19:58;-0.60;99.90
4487;DHT22;2256;48.740;9.106;2023-02-15T04:22:45;-0.70;99.90
4487;DHT22;2256;48.740;9.106;2023-02-15T04:25:31;-0.70;99.90
4487;DHT22;2256;48.740;9.106;2023-02-15T04:27:58;-0.70;99.90
4487;DHT22;2256;48.740;9.106;2023-02-15T04:30:25;-0.80;99.90
4487;DHT22;2256;48.740;9.106;2023-02-15T04:32:53;-0.70;99.90
4487;DHT22;2256;48.740;9.106;2023-02-15T04:35:20;-0.60;99.90
4487;DHT22;2256;48.740;9.106;2023-02-15T04:37:49;-0.60;99.90
4487;DHT22;2256;48.740;9.106;2023-02-15T04:40:17;-0.60;99.90
4487;DHT22;2256;48.740;9.106;2023-02-15T04:42:45;-0.80;99.90
4487;DHT22;2256;48.740;9.106;2023-02-15T04:45:13;-0.90;99.90
4487;DHT22;2256;48.740;9.106;2023-02-15T04:47:41;-0.90;99.90
4487;DHT22;2256;48.740;9.106;2023-02-15T04:50:08;-0.90;99.90
4487;DHT22;2256;48.740;9.106;2023-02-15T04:52:35;-1.00;99.90
4487;DHT22;2256;48.740;9.106;2023-02-15T04:55:04;-0.90;99.90
4487;DHT22;2256;48.740;9.106;2023-02-15T04:57:30;-0.90;99.90
4487;DHT22;2256;48.740;9.106;2023-02-15T04:59:57;-1.00;99.90
4487;DHT22;2256;48.740;9.106;2023-02-15T05:02:24;-0.90;99.90
4487;DHT22;2256;48.740;9.106;2023-02-15T05:04:51;-0.80;99.90
4487;DHT22;2256;48.740;9.106;2023-02-15T05:07:18;-0.80;99.90
4487;DHT22;2256;48.740;9.106;2023-02-15T05:09:45;-0.80;99.90
4487;DHT22;2256;48.740;9.106;2023-02-15T05:12:13;-0.80;99.90
4487;DHT22;2256;48.740;9.106;2023-02-15T05:14:40;-0.70;99.90
4487;DHT22;2256;48.740;9.106;2023-02-15T05:17:07;-0.80;99.90
4487;DHT22;2256;48.740;9.106;2023-02-15T05:19:34;-0.90;99.90
4487;DHT22;2256;48.740;9.106;2023-02-15T05:22:00;-0.90;99.90
4487;DHT22;2256;48.740;9.106;2023-02-15T05:24:27;-1.00;99.90
4487;DHT22;2256;48.740;9.106;2023-02-15T05:27:13;-0.80;99.90
4487;DHT22;2256;48.740;9.106;2023-02-15T05:29:57;-0.80;99.90
4487;DHT22;2256;48.740;9.106;2023-02-15T05:32:24;-0.90;99.90
4487;DHT22;2256;48.740;9.106;2023-02-15T05:34:51;-1.10;99.90
4487;DHT22;2256;48.740;9.106;2023-02-15T05:37:18;-1.00;99.90
4487;DHT22;2256;48.740;9.106;2023-02-15T05:39:45;-0.90;99.90
4487;DHT22;2256;48.740;9.106;2023-02-15T05:42:11;-1.00;99.90
4487;DHT22;2256;48.740;9.106;2023-02-15T05:44:40;-0.90;99.90
4487;DHT22;2256;48.740;9.106;2023-02-15T05:47:06;-1.00;99.90
4487;DHT22;2256;48.740;9.106;2023-02-15T05:49:33;-1.10;99.90
4487;DHT22;2256;48.740;9.106;2023-02-15T05:52:00;-1.10;99.90
4487;DHT22;2256;48.740;9.106;2023-02-15T05:54:28;-1.20;99.90
4487;DHT22;2256;48.740;9.106;2023-02-15T05:56:55;-1.20;99.90
4487;DHT22;2256;48.740;9.106;2023-02-15T05:59:22;-1.10;99.90
4487;DHT22;2256;48.740;9.106;2023-02-15T06:01:50;-1.10;99.90
4487;DHT22;2256;48.740;9.106;2023-02-15T06:04:17;-1.00;99.90
4487;DHT22;2256;48.740;9.106;2023-02-15T06:06:44;-0.90;99.90
4487;DHT22;2256;48.740;9.106;2023-02-15T06:09:12;-0.90;99.90
4487;DHT22;2256;48.740;9.106;2023-02-15T06:11:39;-0.90;99.90
4487;DHT22;2256;48.740;9.106;2023-02-15T06:14:06;-0.90;99.90
4487;DHT22;2256;48.740;9.106;2023-02-15T06:16:33;-0.90;99.90
4487;DHT22;2256;48.740;9.106;2023-02-15T06:19:01;-0.90;99.90
4487;DHT22;2256;48.740;9.106;2023-02-15T06:21:28;-0.90;99.90
4487;DHT22;2256;48.740;9.106;2023-02-15T06:23:55;-0.90;99.90
4487;DHT22;2256;48.740;9.106;2023-02-15T06:26:23;-0.90;99.90
4487;DHT22;2256;48.740;9.106;2023-02-15T06:28:49;-0.90;99.90
4487;DHT22;2256;48.740;9.106;2023-02-15T06:31:17;-0.90;99.90
4487;DHT22;2256;48.740;9.106;2023-02-15T06:33:45;-1.00;99.90
4487;DHT22;2256;48.740;9.106;2023-02-15T06:36:15;-1.00;99.90
4487;DHT22;2256;48.740;9.106;2023-02-15T06:38:42;-0.90;99.90
4487;DHT22;2256;48.740;9.106;2023-02-15T06:41:09;-1.00;99.90
4487;DHT22;2256;48.740;9.106;2023-02-15T06:43:36;-1.10;99.90
4487;DHT22;2256;48.740;9.106;2023-02-15T06:46:03;-1.10;99.90
4487;DHT22;2256;48.740;9.106;2023-02-15T06:48:30;-1.00;99.90
4487;DHT22;2256;48.740;9.106;2023-02-15T06:50:56;-0.90;99.90
4487;DHT22;2256;48.740;9.106;2023-02-15T06:53:25;-0.90;99.90
4487;DHT22;2256;48.740;9.106;2023-02-15T06:55:53;-0.70;99.90
4487;DHT22;2256;48.740;9.106;2023-02-15T06:58:26;-0.40;99.90
4487;DHT22;2256;48.740;9.106;2023-02-15T07:00:52;-0.30;99.90
4487;DHT22;2256;48.740;9.106;2023-02-15T07:03:19;-0.20;99.90
4487;DHT22;2256;48.740;9.106;2023-02-15T07:05:46;-0.10;99.90
4487;DHT22;2256;48.740;9.106;2023-02-15T07:08:14;-0.10;99.90
4487;DHT22;2256;48.740;9.106;2023-02-15T07:10:44;0.00;99.90
4487;DHT22;2256;48.740;9.106;2023-02-15T07:13:11;0.20;99.90
4487;DHT22;2256;48.740;9.106;2023-02-15T07:15:37;0.40;99.90
4487;DHT22;2256;48.740;9.106;2023-02-15T07:18:04;0.30;99.90
4487;DHT22;2256;48.740;9.106;2023-02-15T07:20:31;0.40;99.90
4487;DHT22;2256;48.740;9.106;2023-02-15T07:22:58;0.50;99.90
4487;DHT22;2256;48.740;9.106;2023-02-15T07:25:26;0.50;99.90
4487;DHT22;2256;48.740;9.106;2023-02-15T07:27:57;0.80;99.90
4487;DHT22;2256;48.740;9.106;2023-02-15T07:30:24;1.00;99.90
4487;DHT22;2256;48.740;9.106;2023-02-15T07:32:54;1.50;99.90
4487;DHT22;2256;48.740;9.106;2023-02-15T07:35:46;2.10;99.90
4487;DHT22;2256;48.740;9.106;2023-02-15T07:38:13;3.10;99.90
4487;DHT22;2256;48.740;9.106;2023-02-15T07:40:39;3.50;99.90
4487;DHT22;2256;48.740;9.106;2023-02-15T07:43:08;3.30;99.90
4487;DHT22;2256;48.740;9.106;2023-02-15T07:45:34;3.10;99.90
4487;DHT22;2256;48.740;9.106;2023-02-15T07:48:02;3.00;99.90
4487;DHT22;2256;48.740;9.106;2023-02-15T07:50:29;3.20;99.90
4487;DHT22;2256;48.740;9.106;2023-02-15T07:52:56;3.20;99.90
4487;DHT22;2256;48.740;9.106;2023-02-15T07:55:24;3.10;99.90
4487;DHT22;2256;48.740;9.106;2023-02-15T07:57:51;2.70;99.90
4487;DHT22;2256;48.740;9.106;2023-02-15T08:00:21;2.50;99.90
4487;DHT22;2256;48.740;9.106;2023-02-15T08:02:51;2.30;99.90
4487;DHT22;2256;48.740;9.106;2023-02-15T08:05:38;2.20;99.90
4487;DHT22;2256;48.740;9.106;2023-02-15T08:08:06;2.20;99.90
4487;DHT22;2256;48.740;9.106;2023-02-15T08:10:33;2.20;99.90
4487;DHT22;2256;48.740;9.106;2023-02-15T08:13:17;2.20;99.90
4487;DHT22;2256;48.740;9.106;2023-02-15T08:15:49;2.10;99.90
4487;DHT22;2256;48.740;9.106;2023-02-15T08:18:17;2.20;99.90
4487;DHT22;2256;48.740;9.106;2023-02-15T08:20:49;2.20;99.90
4487;DHT22;2256;48.740;9.106;2023-02-15T08:23:15;2.20;99.90
4487;DHT22;2256;48.740;9.106;2023-02-15T08:25:42;2.40;99.90
4487;DHT22;2256;48.740;9.106;2023-02-15T08:28:09;2.50;99.90
4487;DHT22;2256;48.740;9.106;2023-02-15T08:30:36;2.40;99.90
4487;DHT22;2256;48.740;9.106;2023-02-15T08:33:04;2.60;99.90
4487;DHT22;2256;48.740;9.106;2023-02-15T08:35:31;2.90;99.90
4487;DHT22;2256;48.740;9.106;2023-02-15T08:37:58;3.20;99.90
4487;DHT22;2256;48.740;9.106;2023-02-15T08:40:25;3.60;99.90
4487;DHT22;2256;48.740;9.106;2023-02-15T08:42:52;4.30;99.90
4487;DHT22;2256;48.740;9.106;2023-02-15T08:45:18;4.80;99.90
4487;DHT22;2256;48.740;9.106;2023-02-15T08:47:45;4.60;99.90
4487;DHT22;2256;48.740;9.106;2023-02-15T08:50:13;4.80;99.90
4487;DHT22;2256;48.740;9.106;2023-02-15T08:52:40;5.80;99.90
4487;DHT22;2256;48.740;9.106;2023-02-15T08:55:07;7.30;99.90
4487;DHT22;2256;48.740;9.106;2023-02-15T08:57:36;8.40;99.90
4487;DHT22;2256;48.740;9.106;2023-02-15T09:00:04;9.50;99.90
4487;DHT22;2256;48.740;9.106;2023-02-15T09:02:31;10.70;99.90
4487;DHT22;2256;48.740;9.106;2023-02-15T09:04:58;11.60;99.40
4487;DHT22;2256;48.740;9.106;2023-02-15T09:07:26;12.50;98.20
4487;DHT22;2256;48.740;9.106;2023-02-15T09:09:53;12.90;97.10
4487;DHT22;2256;48.740;9.106;2023-02-15T09:12:20;13.40;96.10
4487;DHT22;2256;48.740;9.106;2023-02-15T09:14:47;14.00;95.20
4487;DHT22;2256;48.740;9.106;2023-02-15T09:17:14;14.40;94.40
4487;DHT22;2256;48.740;9.106;2023-02-15T09:19:40;14.60;93.90
4487;DHT22;2256;48.740;9.106;2023-02-15T09:22:07;14.80;93.30
4487;DHT22;2256;48.740;9.106;2023-02-15T09:24:35;14.80;93.30
4487;DHT22;2256;48.740;9.106;2023-02-15T09:27:02;14.80;93.00
4487;DHT22;2256;48.740;9.106;2023-02-15T09:29:29;15.00;92.40
4487;DHT22;2256;48.740;9.106;2023-02-15T09:31:55;15.10;92.50
4487;DHT22;2256;48.740;9.106;2023-02-15T09:34:22;15.00;92.60
4487;DHT22;2256;48.740;9.106;2023-02-15T09:36:50;14.90;92.40
4487;DHT22;2256;48.740;9.106;2023-02-15T09:39:19;14.80;92.80
4487;DHT22;2256;48.740;9.106;2023-02-15T09:42:15;14.20;92.70
4487;DHT22;2256;48.740;9.106;2023-02-15T09:45:00;14.20;93.00
4487;DHT22;2256;48.740;9.106;2023-02-15T09:50:28;13.20;93.70
4487;DHT22;2256;48.740;9.106;2023-02-15T09:53:10;12.50;94.10
4487;DHT22;2256;48.740;9.106;2023-02-15T09:55:48;11.80;94.50
4487;DHT22;2256;48.740;9.106;2023-02-15T09:58:24;11.10;95.60
4487;DHT22;2256;48.740;9.106;2023-02-15T10:01:00;10.50;96.00
4487;DHT22;2256;48.740;9.106;2023-02-15T10:03:42;10.00;96.60
4487;DHT22;2256;48.740;9.106;2023-02-15T10:06:27;9.40;98.00
4487;DHT22;2256;48.740;9.106;2023-02-15T10:12:01;8.70;99.30
4487;DHT22;2256;48.740;9.106;2023-02-15T10:14:47;8.30;99.90
4487;DHT22;2256;48.740;9.106;2023-02-15T10:17:29;7.80;99.90
4487;DHT22;2256;48.740;9.106;2023-02-15T10:20:13;7.70;99.90
4487;DHT22;2256;48.740;9.106;2023-02-15T10:22:54;7.50;99.90
4487;DHT22;2256;48.740;9.106;2023-02-15T10:25:31;7.30;99.90
4487;DHT22;2256;48.740;9.106;2023-02-15T10:28:05;7.40;99.90
4487;DHT22;2256;48.740;9.106;2023-02-15T10:30:40;7.40;99.90
4487;DHT22;2256;48.740;9.106;2023-02-15T10:33:16;7.50;99.90
4487;DHT22;2256;48.740;9.106;2023-02-15T10:35:55;7.60;99.90
4487;DHT22;2256;48.740;9.106;2023-02-15T10:38:29;7.70;99.90
4487;DHT22;2256;48.740;9.106;2023-02-15T10:41:08;7.80;99.90
4487;DHT22;2256;48.740;9.106;2023-02-15T10:43:50;7.90;99.90
4487;DHT22;2256;48.740;9.106;2023-02-15T10:46:39;8.00;99.90
4487;DHT22;2256;48.740;9.106;2023-02-15T10:49:27;8.10;99.90
4487;DHT22;2256;48.740;9.106;2023-02-15T10:52:11;8.30;99.90
4487;DHT22;2256;48.740;9.106;2023-02-15T10:54:45;8.40;99.90
4487;DHT22;2256;48.740;9.106;2023-02-15T10:57:19;8.50;99.90
4487;DHT22;2256;48.740;9.106;2023-02-15T11:00:01;8.60;99.90
4487;DHT22;2256;48.740;9.106;2023-02-15T11:05:35;8.80;99.90
4487;DHT22;2256;48.740;9.106;2023-02-15T11:08:08;8.90;99.90
4487;DHT22;2256;48.740;9.106;2023-02-15T11:10:38;9.00;99.90
4487;DHT22;2256;48.740;9.106;2023-02-15T11:13:09;9.10;99.90
4487;DHT22;2256;48.740;9.106;2023-02-15T11:15:40;9.30;99.90
4487;DHT22;2256;48.740;9.106;2023-02-15T11:18:12;9.30;99.90
4487;DHT22;2256;48.740;9.106;2023-02-15T11:20:45;9.40;99.90
4487;DHT22;2256;48.740;9.106;2023-02-15T11:23:16;9.60;99.90
4487;DHT22;2256;48.740;9.106;2023-02-15T11:25:46;9.70;99.90
4487;DHT22;2256;48.740;9.106;2023-02-15T11:28:22;9.90;99.90
4487;DHT22;2256;48.740;9.106;2023-02-15T11:30:53;10.00;99.30
4487;DHT22;2256;48.740;9.106;2023-02-15T11:33:26;10.00;99.10
4487;DHT22;2256;48.740;9.106;2023-02-15T11:36:00;10.00;99.10
4487;DHT22;2256;48.740;9.106;2023-02-15T11:38:30;10.00;98.80
4487;DHT22;2256;48.740;9.106;2023-02-15T11:41:11;10.10;98.60
4487;DHT22;2256;48.740;9.106;2023-02-15T11:43:41;10.00;98.80
4487;DHT22;2256;48.740;9.106;2023-02-15T11:46:11;10.00;98.50
4487;DHT22;2256;48.740;9.106;2023-02-15T11:48:40;10.10;98.60
4487;DHT22;2256;48.740;9.106;2023-02-15T11:51:12;10.20;98.30
4487;DHT22;2256;48.740;9.106;2023-02-15T11:53:42;10.50;98.20
4487;DHT22;2256;48.740;9.106;2023-02-15T11:56:14;10.40;98.30
4487;DHT22;2256;48.740;9.106;2023-02-15T11:58:44;10.60;98.50
4487;DHT22;2256;48.740;9.106;2023-02-15T12:01:16;10.50;97.80
4487;DHT22;2256;48.740;9.106;2023-02-15T12:03:46;10.40;97.60
4487;DHT22;2256;48.740;9.106;2023-02-15T12:06:19;10.40;97.70
4487;DHT22;2256;48.740;9.106;2023-02-15T12:08:53;10.20;97.80
4487;DHT22;2256;48.740;9.106;2023-02-15T12:11:25;9.90;98.60
4487;DHT22;2256;48.740;9.106;2023-02-15T12:13:57;9.80;99.00
4487;DHT22;2256;48.740;9.106;2023-02-15T12:16:25;9.80;98.80
4487;DHT22;2256;48.740;9.106;2023-02-15T12:18:58;9.60;98.90
4487;DHT22;2256;48.740;9.106;2023-02-15T12:21:28;9.60;98.60
4487;DHT22;2256;48.740;9.106;2023-02-15T12:23:58;9.50;99.10
4487;DHT22;2256;48.740;9.106;2023-02-15T12:26:28;9.40;99.00
4487;DHT22;2256;48.740;9.106;2023-02-15T12:28:57;9.40;99.10
4487;DHT22;2256;48.740;9.106;2023-02-15T12:31:31;9.50;98.90
4487;DHT22;2256;48.740;9.106;2023-02-15T12:34:03;9.40;99.10
4487;DHT22;2256;48.740;9.106;2023-02-15T12:36:41;9.50;99.00
4487;DHT22;2256;48.740;9.106;2023-02-15T12:39:21;9.40;99.20
4487;DHT22;2256;48.740;9.106;2023-02-15T12:42:00;9.50;99.40
4487;DHT22;2256;48.740;9.106;2023-02-15T12:44:29;9.50;99.30
4487;DHT22;2256;48.740;9.106;2023-02-15T12:46:58;9.70;99.10
4487;DHT22;2256;48.740;9.106;2023-02-15T12:49:27;9.60;99.40
4487;DHT22;2256;48.740;9.106;2023-02-15T12:51:55;9.60;99.60
4487;DHT22;2256;48.740;9.106;2023-02-15T12:54:30;9.90;99.10
4487;DHT22;2256;48.740;9.106;2023-02-15T12:56:57;9.90;98.90
4487;DHT22;2256;48.740;9.106;2023-02-15T12:59:24;9.80;99.20
4487;DHT22;2256;48.740;9.106;2023-02-15T13:01:51;9.90;99.10
4487;DHT22;2256;48.740;9.106;2023-02-15T13:04:23;9.70;99.20
4487;DHT22;2256;48.740;9.106;2023-02-15T13:06:54;9.90;99.00
4487;DHT22;2256;48.740;9.106;2023-02-15T13:09:26;10.00;98.50
4487;DHT22;2256;48.740;9.106;2023-02-15T13:12:11;9.90;99.40
4487;DHT22;2256;48.740;9.106;2023-02-15T13:14:44;9.90;99.30
4487;DHT22;2256;48.740;9.106;2023-02-15T13:17:12;10.00;98.60
4487;DHT22;2256;48.740;9.106;2023-02-15T13:19:43;10.20;98.30
4487;DHT22;2256;48.740;9.106;2023-02-15T13:22:14;10.20;98.60
4487;DHT22;2256;48.740;9.106;2023-02-15T13:24:45;10.20;98.60
4487;DHT22;2256;48.740;9.106;2023-02-15T13:27:15;10.30;98.50
4487;DHT22;2256;48.740;9.106;2023-02-15T13:29:43;10.30;98.70
4487;DHT22;2256;48.740;9.106;2023-02-15T13:32:15;10.30;98.40
4487;DHT22;2256;48.740;9.106;2023-02-15T13:34:48;10.40;98.60
4487;DHT22;2256;48.740;9.106;2023-02-15T13:37:20;10.30;98.60
4487;DHT22;2256;48.740;9.106;2023-02-15T13:39:50;10.10;98.80
4487;DHT22;2256;48.740;9.106;2023-02-15T13:42:22;10.10;98.90
4487;DHT22;2256;48.740;9.106;2023-02-15T13:45:05;10.10;98.90
4487;DHT22;2256;48.740;9.106;2023-02-15T13:47:36;10.10;99.00
4487;DHT22;2256;48.740;9.106;2023-02-15T13:50:20;10.00;99.10
4487;DHT22;2256;48.740;9.106;2023-02-15T13:52:57;10.10;98.70
4487;DHT22;2256;48.740;9.106;2023-02-15T13:55:32;10.40;98.70
4487;DHT22;2256;48.740;9.106;2023-02-15T13:58:25;10.50;98.50
4487;DHT22;2256;48.740;9.106;2023-02-15T14:01:04;10.60;97.90
4487;DHT22;2256;48.740;9.106;2023-02-15T14:03:51;10.60;97.50
4487;DHT22;2256;48.740;9.106;2023-02-15T14:06:34;10.60;97.90
4487;DHT22;2256;48.740;9.106;2023-02-15T14:09:15;10.60;97.70
4487;DHT22;2256;48.740;9.106;2023-02-15T14:11:52;10.40;97.30
4487;DHT22;2256;48.740;9.106;2023-02-15T14:14:36;10.50;97.70
4487;DHT22;2256;48.740;9.106;2023-02-15T14:17:15;10.60;96.60
4487;DHT22;2256;48.740;9.106;2023-02-15T14:19:46;10.70;96.60
4487;DHT22;2256;48.740;9.106;2023-02-15T14:22:20;10.80;96.60
4487;DHT22;2256;48.740;9.106;2023-02-15T14:24:58;10.80;96.50
4487;DHT22;2256;48.740;9.106;2023-02-15T14:27:32;10.80;95.80
4487;DHT22;2256;48.740;9.106;2023-02-15T14:30:12;10.80;95.90
4487;DHT22;2256;48.740;9.106;2023-02-15T14:32:43;10.80;95.90
4487;DHT22;2256;48.740;9.106;2023-02-15T14:35:14;10.80;94.50
4487;DHT22;2256;48.740;9.106;2023-02-15T14:37:45;10.80;95.30
4487;DHT22;2256;48.740;9.106;2023-02-15T14:40:19;10.70;94.60
4487;DHT22;2256;48.740;9.106;2023-02-15T14:43:14;10.80;94.50
4487;DHT22;2256;48.740;9.106;2023-02-15T14:45:56;10.90;95.10
4487;DHT22;2256;48.740;9.106;2023-02-15T14:48:31;10.70;95.40
4487;DHT22;2256;48.740;9.106;2023-02-15T14:50:59;10.80;94.80
4487;DHT22;2256;48.740;9.106;2023-02-15T14:53:37;10.90;93.70
4487;DHT22;2256;48.740;9.106;2023-02-15T14:56:15;11.00;93.60
4487;DHT22;2256;48.740;9.106;2023-02-15T15:01:38;11.00;93.80
4487;DHT22;2256;48.740;9.106;2023-02-15T15:04:08;11.10;93.90
4487;DHT22;2256;48.740;9.106;2023-02-15T15:06:37;11.00;94.20
4487;DHT22;2256;48.740;9.106;2023-02-15T15:09:11;11.00;94.30
4487;DHT22;2256;48.740;9.106;2023-02-15T15:11:45;11.00;94.60
4487;DHT22;2256;48.740;9.106;2023-02-15T15:14:41;11.00;94.80
4487;DHT22;2256;48.740;9.106;2023-02-15T15:17:11;11.00;95.10
4487;DHT22;2256;48.740;9.106;2023-02-15T15:19:57;11.00;95.30
4487;DHT22;2256;48.740;9.106;2023-02-15T15:22:25;11.00;95.60
4487;DHT22;2256;48.740;9.106;2023-02-15T15:24:53;10.90;96.00
4487;DHT22;2256;48.740;9.106;2023-02-15T15:27:41;10.90;96.10
4487;DHT22;2256;48.740;9.106;2023-02-15T15:34:04;10.70;96.00
4487;DHT22;2256;48.740;9.106;2023-02-15T15:42:51;10.40;96.10
4487;DHT22;2256;48.740;9.106;2023-02-15T15:45:54;10.30;96.10
4487;DHT22;2256;48.740;9.106;2023-02-15T15:48:32;10.20;95.90
4487;DHT22;2256;48.740;9.106;2023-02-15T15:51:03;10.10;96.10
4487;DHT22;2256;48.740;9.106;2023-02-15T15:53:38;9.90;96.60
4487;DHT22;2256;48.740;9.106;2023-02-15T15:56:12;9.80;96.60
4487;DHT22;2256;48.740;9.106;2023-02-15T15:58:45;10.00;96.00
4487;DHT22;2256;48.740;9.106;2023-02-15T16:01:13;9.90;96.70
4487;DHT22;2256;48.740;9.106;2023-02-15T16:03:49;9.90;96.80
4487;DHT22;2256;48.740;9.106;2023-02-15T16:06:28;9.80;96.40
4487;DHT22;2256;48.740;9.106;2023-02-15T16:08:55;9.80;96.30
4487;DHT22;2256;48.740;9.106;2023-02-15T16:11:24;9.80;96.50
4487;DHT22;2256;48.740;9.106;2023-02-15T16:13:52;9.60;96.30
4487;DHT22;2256;48.740;9.106;2023-02-15T16:16:22;9.50;96.30
4487;DHT22;2256;48.740;9.106;2023-02-15T16:18:49;9.50;96.90
4487;DHT22;2256;48.740;9.106;2023-02-15T16:21:19;9.30;97.10
4487;DHT22;2256;48.740;9.106;2023-02-15T16:24:12;9.10;97.50
4487;DHT22;2256;48.740;9.106;2023-02-15T16:29:52;8.60;98.10
4487;DHT22;2256;48.740;9.106;2023-02-15T16:32:20;8.30;98.50
4487;DHT22;2256;48.740;9.106;2023-02-15T16:34:51;8.20;98.80
4487;DHT22;2256;48.740;9.106;2023-02-15T16:37:19;8.10;99.20
4487;DHT22;2256;48.740;9.106;2023-02-15T16:39:49;7.90;99.40
4487;DHT22;2256;48.740;9.106;2023-02-15T16:42:18;7.80;99.60
4487;DHT22;2256;48.740;9.106;2023-02-15T16:44:45;7.60;99.90
4487;DHT22;2256;48.740;9.106;2023-02-15T16:47:17;7.40;99.90
4487;DHT22;2256;48.740;9.106;2023-02-15T16:49:47;7.40;99.90
4487;DHT22;2256;48.740;9.106;2023-02-15T16:52:19;7.40;99.90
4487;DHT22;2256;48.740;9.106;2023-02-15T16:54:50;7.30;99.90
4487;DHT22;2256;48.740;9.106;2023-02-15T16:57:20;7.10;99.90
4487;DHT22;2256;48.740;9.106;2023-02-15T16:59:49;7.00;99.90
4487;DHT22;2256;48.740;9.106;2023-02-15T17:02:20;6.90;99.90
4487;DHT22;2256;48.740;9.106;2023-02-15T17:05:03;6.90;99.90
4487;DHT22;2256;48.740;9.106;2023-02-15T17:07:32;6.80;99.90
4487;DHT22;2256;48.740;9.106;2023-02-15T17:09:59;6.80;99.90
4487;DHT22;2256;48.740;9.106;2023-02-15T17:12:45;6.70;99.90